Parzialmente nuvoloso
Parzialmente nuvoloso
Variabile
Coperto
Parzialmente nuvoloso
Variabile con nubi cumuliformi
Variabile
Variabile
Variabile
(°C)
17°
17°
18°
18°
19°
19°
20°
20°
21°
21°
22°
22°
22°
22°
23°
23°
23°
23°
(°C)
15°
16°
17°
18°
18°
19°
19°
19°
19°
SO
SO
SO
SO
SO
SO
OSO
SO
O
(km/h)
14-21
14-26
15-29
16-31
17-35
17-38
17-40
17-41
17-40
(mm)
0
0
0
0
0
0
0
0
0
(%)
0
0
0
0
5
5
11
0
0

Elevazione del sole

/ 33°
sun-icon
UV 5
05:15
21:40
Primo quarto (96°)
14:44
00:20

METAR per Bordenau (ETNW)

Ora Condizioni Temperatura/
Punto di rugiada
Vento Visibilità Meteo Nuvole Pressione Cambiamento Grezzo
VFR 16°C / 11°C 210º 8kt 9700m - Few Clouds 7000ft
Scattered Clouds 11000ft
1013 - ETNW 140620Z 21008KT 9999 FEW070 SCT110 16/11 Q1013 BLU+BLU+
VFR 14°C / 11°C 130º 1kt 9700m - Scattered Clouds 10000ft
Scattered Clouds 24000ft
1013 - ETNW 140520Z 13001KT 9999 SCT100 SCT240 14/11 Q1013 BLU+
VFR 13°C / 11°C 220º 7kt 9700m - Scattered Clouds 10000ft 1013 - ETNW 140420Z 22007KT 9999 SCT100 13/11 Q1013 BLU+
VFR 13°C / 10°C 230º 6kt 9700m - Scattered Clouds 10000ft 1013 - ETNW 140320Z 23006KT 9999 SCT100 13/10 Q1013 BLU+
VFR 13°C / 11°C 230º 6kt 9700m - Few Clouds 9000ft 1012 - ETNW 140220Z 23006KT 9999 FEW090 13/11 Q1012 BLU+
VFR 12°C / 11°C 200º 5kt 9700m - Few Clouds 9000ft 1012 - ETNW 140120Z 20005KT 9999 FEW090 12/11 Q1012 BLU+
VFR 13°C / 11°C 190º 7kt 9700m - Few Clouds 5000ft 1012 - ETNW 140020Z 19007KT 9999 FEW050 13/11 Q1012 BLU+
VFR 13°C / 11°C 200º 5kt 9700m - Few Clouds 5000ft 1013 - ETNW 132320Z 20005KT 9999 FEW050 13/11 Q1013 BLU+
VFR 14°C / 12°C 200º 5kt 9700m - Scattered Clouds 5000ft 1013 - ETNW 132220Z 20005KT 9999 SCT050 14/12 Q1013 BLU+
VFR 15°C / 11°C 190º 4kt 9700m - Few Clouds 7000ft 1012 - ETNW 132120Z 19004KT 9999 FEW070 15/11 Q1012 BLU+
VFR 16°C / 11°C 250º 4kt 9700m - Few Clouds 7000ft 1012 - ETNW 132020Z 25004KT 9999 FEW070 16/11 Q1012 BLU+
VFR 17°C / 11°C 260º 4kt 9700m - Few Clouds 7000ft 1012 - ETNW 131920Z 26004KT 9999 FEW070 17/11 Q1012 BLU+
VFR 18°C / 11°C 260º 7kt 9700m - Few Clouds 4000ft
Scattered Clouds 7000ft
1012 - ETNW 131820Z 26007KT 9999 FEW040 SCT070 18/11 Q1012 BLU+
VFR 19°C / 10°C 250º 11kt 9700m - Scattered Clouds 3500ft
Scattered Clouds 6000ft
1012 - ETNW 131720Z 25011KT 9999 SCT035 SCT060 19/10 Q1012 BLU+
VFR 19°C / 10°C 230º 12kt 9700m - Scattered Clouds 3500ft
Scattered Clouds 6500ft
1012 - ETNW 131620Z 23012KT 9999 SCT035 SCT065 19/10 Q1012 BLU+
VFR 19°C / 11°C 230º 12kt 9700m - Scattered Clouds 3500ft
Broken Clouds 5000ft
1011 - ETNW 131520Z 23012KT 9999 SCT035 BKN050 19/11 Q1011 BLU
VFR 18°C / 11°C 230º 13kt 9700m - Broken Clouds 3500ft
Broken Clouds 5000ft
1011 - ETNW 131420Z 23013KT 9999 BKN035 BKN050 18/11 Q1011 BLU
VFR 18°C / 11°C 230º 12kt 9700m - Broken Clouds 3500ft 1011 - ETNW 131320Z 23012KT 9999 BKN035 18/11 Q1011 BLU
VFR 18°C / 10°C 230º 11kt 9700m - Broken Clouds 3500ft 1011 - ETNW 131220Z 23011KT 9999 BKN035 18/10 Q1011 BLU
VFR 18°C / 10°C 230º 13kt 9700m - Broken Clouds 3500ft 1011 - ETNW 131120Z 23013KT 9999 BKN035 18/10 Q1011 BLU
MVFR 17°C / 10°C 230º 13kt 9700m - Broken Clouds 3000ft 1011 - ETNW 131020Z 23013KT 9999 BKN030 17/10 Q1011 BLU
MVFR 17°C / 11°C 240º 11kt 9700m - Broken Clouds 2500ft 1011 - ETNW 130940Z 24011KT 9999 BKN025 17/11 Q1011 BLU
MVFR 17°C / 11°C 240º 10kt 9700m - Broken Clouds 2200ft 1010 - ETNW 130920Z 24010KT 9999 BKN022 17/11 Q1010 WHT
MVFR 16°C / 11°C 230º 10kt 9700m in the Vicinity Showers Broken Clouds 2000ft 1010 - ETNW 130820Z 23010KT 9999 VCSH BKN020 16/11 Q1010 WHT

VFR

16°C / 11°C

[Più]
Vento 210º 8kt
Visibilità 9700m
Meteo -
Nuvole Few Clouds 7000ft
Scattered Clouds 11000ft
Pressione 1013
Cambiamento -
Grezzo ETNW 140620Z 21008KT 9999 FEW070 SCT110 16/11 Q1013 BLU+BLU+

VFR

14°C / 11°C

[Più]
Vento 130º 1kt
Visibilità 9700m
Meteo -
Nuvole Scattered Clouds 10000ft
Scattered Clouds 24000ft
Pressione 1013
Cambiamento -
Grezzo ETNW 140520Z 13001KT 9999 SCT100 SCT240 14/11 Q1013 BLU+

VFR

13°C / 11°C

[Più]
Vento 220º 7kt
Visibilità 9700m
Meteo -
Nuvole Scattered Clouds 10000ft
Pressione 1013
Cambiamento -
Grezzo ETNW 140420Z 22007KT 9999 SCT100 13/11 Q1013 BLU+

VFR

13°C / 10°C

[Più]
Vento 230º 6kt
Visibilità 9700m
Meteo -
Nuvole Scattered Clouds 10000ft
Pressione 1013
Cambiamento -
Grezzo ETNW 140320Z 23006KT 9999 SCT100 13/10 Q1013 BLU+

VFR

13°C / 11°C

[Più]
Vento 230º 6kt
Visibilità 9700m
Meteo -
Nuvole Few Clouds 9000ft
Pressione 1012
Cambiamento -
Grezzo ETNW 140220Z 23006KT 9999 FEW090 13/11 Q1012 BLU+

VFR

12°C / 11°C

[Più]
Vento 200º 5kt
Visibilità 9700m
Meteo -
Nuvole Few Clouds 9000ft
Pressione 1012
Cambiamento -
Grezzo ETNW 140120Z 20005KT 9999 FEW090 12/11 Q1012 BLU+

VFR

13°C / 11°C

[Più]
Vento 190º 7kt
Visibilità 9700m
Meteo -
Nuvole Few Clouds 5000ft
Pressione 1012
Cambiamento -
Grezzo ETNW 140020Z 19007KT 9999 FEW050 13/11 Q1012 BLU+

VFR

13°C / 11°C

[Più]
Vento 200º 5kt
Visibilità 9700m
Meteo -
Nuvole Few Clouds 5000ft
Pressione 1013
Cambiamento -
Grezzo ETNW 132320Z 20005KT 9999 FEW050 13/11 Q1013 BLU+

VFR

14°C / 12°C

[Più]
Vento 200º 5kt
Visibilità 9700m
Meteo -
Nuvole Scattered Clouds 5000ft
Pressione 1013
Cambiamento -
Grezzo ETNW 132220Z 20005KT 9999 SCT050 14/12 Q1013 BLU+

VFR

15°C / 11°C

[Più]
Vento 190º 4kt
Visibilità 9700m
Meteo -
Nuvole Few Clouds 7000ft
Pressione 1012
Cambiamento -
Grezzo ETNW 132120Z 19004KT 9999 FEW070 15/11 Q1012 BLU+

VFR

16°C / 11°C

[Più]
Vento 250º 4kt
Visibilità 9700m
Meteo -
Nuvole Few Clouds 7000ft
Pressione 1012
Cambiamento -
Grezzo ETNW 132020Z 25004KT 9999 FEW070 16/11 Q1012 BLU+

VFR

17°C / 11°C

[Più]
Vento 260º 4kt
Visibilità 9700m
Meteo -
Nuvole Few Clouds 7000ft
Pressione 1012
Cambiamento -
Grezzo ETNW 131920Z 26004KT 9999 FEW070 17/11 Q1012 BLU+

VFR

18°C / 11°C

[Più]
Vento 260º 7kt
Visibilità 9700m
Meteo -
Nuvole Few Clouds 4000ft
Scattered Clouds 7000ft
Pressione 1012
Cambiamento -
Grezzo ETNW 131820Z 26007KT 9999 FEW040 SCT070 18/11 Q1012 BLU+

VFR

19°C / 10°C

[Più]
Vento 250º 11kt
Visibilità 9700m
Meteo -
Nuvole Scattered Clouds 3500ft
Scattered Clouds 6000ft
Pressione 1012
Cambiamento -
Grezzo ETNW 131720Z 25011KT 9999 SCT035 SCT060 19/10 Q1012 BLU+

VFR

19°C / 10°C

[Più]
Vento 230º 12kt
Visibilità 9700m
Meteo -
Nuvole Scattered Clouds 3500ft
Scattered Clouds 6500ft
Pressione 1012
Cambiamento -
Grezzo ETNW 131620Z 23012KT 9999 SCT035 SCT065 19/10 Q1012 BLU+

VFR

19°C / 11°C

[Più]
Vento 230º 12kt
Visibilità 9700m
Meteo -
Nuvole Scattered Clouds 3500ft
Broken Clouds 5000ft
Pressione 1011
Cambiamento -
Grezzo ETNW 131520Z 23012KT 9999 SCT035 BKN050 19/11 Q1011 BLU

VFR

18°C / 11°C

[Più]
Vento 230º 13kt
Visibilità 9700m
Meteo -
Nuvole Broken Clouds 3500ft
Broken Clouds 5000ft
Pressione 1011
Cambiamento -
Grezzo ETNW 131420Z 23013KT 9999 BKN035 BKN050 18/11 Q1011 BLU

VFR

18°C / 11°C

[Più]
Vento 230º 12kt
Visibilità 9700m
Meteo -
Nuvole Broken Clouds 3500ft
Pressione 1011
Cambiamento -
Grezzo ETNW 131320Z 23012KT 9999 BKN035 18/11 Q1011 BLU

VFR

18°C / 10°C

[Più]
Vento 230º 11kt
Visibilità 9700m
Meteo -
Nuvole Broken Clouds 3500ft
Pressione 1011
Cambiamento -
Grezzo ETNW 131220Z 23011KT 9999 BKN035 18/10 Q1011 BLU

VFR

18°C / 10°C

[Più]
Vento 230º 13kt
Visibilità 9700m
Meteo -
Nuvole Broken Clouds 3500ft
Pressione 1011
Cambiamento -
Grezzo ETNW 131120Z 23013KT 9999 BKN035 18/10 Q1011 BLU

MVFR

17°C / 10°C

[Più]
Vento 230º 13kt
Visibilità 9700m
Meteo -
Nuvole Broken Clouds 3000ft
Pressione 1011
Cambiamento -
Grezzo ETNW 131020Z 23013KT 9999 BKN030 17/10 Q1011 BLU

MVFR

17°C / 11°C

[Più]
Vento 240º 11kt
Visibilità 9700m
Meteo -
Nuvole Broken Clouds 2500ft
Pressione 1011
Cambiamento -
Grezzo ETNW 130940Z 24011KT 9999 BKN025 17/11 Q1011 BLU

MVFR

17°C / 11°C

[Più]
Vento 240º 10kt
Visibilità 9700m
Meteo -
Nuvole Broken Clouds 2200ft
Pressione 1010
Cambiamento -
Grezzo ETNW 130920Z 24010KT 9999 BKN022 17/11 Q1010 WHT

MVFR

16°C / 11°C

[Più]
Vento 230º 10kt
Visibilità 9700m
Meteo in the Vicinity Showers
Nuvole Broken Clouds 2000ft
Pressione 1010
Cambiamento -
Grezzo ETNW 130820Z 23010KT 9999 VCSH BKN020 16/11 Q1010 WHT

TAF per Bordenau (ETNW)

From till


From till Wind 220º 8kt. Visibility 9700m. Few Clouds 5000ft.
With 30% probability, from till Wind 220º 10kt. Gust 20kt. Visibility 4000m. Showers Rain . Broken Clouds 2000ft.

Grezzo: TAF ETNW 140401Z 1405/1505 22008KT 9999 NSW FEW050 PROB30 1413/1416 22010G20KT 4000 SHRA BKN020CB

rainNOW: Pioggia nowcast per Bordenau e dintorni (raggio di 25 km)

0.0 mm
0.0 mm
0.0 mm
0.0 mm
0.0 mm
0.0 mm
0.0 mm
0.0 mm
0.0 mm
0.0 mm
0.0 mm
0.0 mm

Radar e nowcasting per Bordenau

Pioviggine
Lieve
Moderato
Forte
Molto forte
Grandine

Il segnaposto è situato a Bordenau. Questa animazione mostra il radar delle precipitazioni per l'intervallo di tempo selezionato, nonché una previsione di 2h. Le croci arancioni indicano i fulmini. Dati forniti da nowcast.de (disponibili in USA, Europa e Australia). La pioviggine o una leggera nevicata potrebbero essere invisibili per il radar. L'intensità delle precipitazioni è codificata a colori, che vanno dal turchese al rosso.

Tempo in atto per Bordenau: immagine satellitare e pioggia, Germania

Il segnaposto è situato a Bordenau. [Più]

L'immagine satellitare in tempo reale combina la luce visibile durante il giorno con la radiazione infrarossa durante la notte. Di notte l'immagine non è scura poiché i raggi infrarossi possono rilevare differenze di temperatura. Purtroppo, le nuvole basse e la nebbia sono difficili da distinguere dalla temperatura del suolo e possono pertanto essere quasi invisibili durante la notte. Le immagini satellitari Meteosat per l'Europa vengono aggiornate in tempo reale ogni 5 minuti. Le immagini GOES-16 / GOES-17 (Nord e Sud America) e Himawari (Asia) vengono aggiornate ogni 10 minuti.

Le precipitazioni sono stimate da radar e satelliti. I calcoli delle precipitazioni dai satelliti sono meno accurati di notte che durante il giorno.

© 2024 meteoblue, NOAA Satellites GOES-16 and EUMETSAT. Fulminazioni fornite da nowcast.

Tornare su
×
Salve,
sembra che stiate usando un blocco degli annunci.

La pubblicità è essenziale per mantenere il nostro sito Web gratuito con dettagli e accuratezza unici.

Si prega di inserire www.meteoblue.com nella whitelist del vostro blocco degli annunci o di considerare l'acquisto di uno dei nostri prodotti:

Avete già un abbonamento?
Allora per favore eseguite il login.